createdAt,value
2023-03-12T00:00:18.221Z,5.20
2023-03-12T00:03:06.095Z,5.00
2023-03-12T00:05:36.446Z,5.00
2023-03-12T00:08:04.517Z,5.10
2023-03-12T00:10:32.987Z,5.00
2023-03-12T00:13:01.490Z,4.90
2023-03-12T00:15:29.212Z,5.10
2023-03-12T00:17:56.891Z,5.10
2023-03-12T00:20:26.260Z,4.80
2023-03-12T00:22:54.028Z,5.00
2023-03-12T00:25:21.707Z,4.90
2023-03-12T00:27:49.612Z,4.90
2023-03-12T00:30:17.318Z,5.20
2023-03-12T00:32:45.116Z,4.60
2023-03-12T00:35:12.908Z,4.90
2023-03-12T00:37:40.514Z,5.00
2023-03-12T00:40:10.812Z,4.80
2023-03-12T00:42:38.736Z,4.60
2023-03-12T00:45:07.120Z,4.90
2023-03-12T00:47:34.810Z,4.80
2023-03-12T00:50:03.177Z,5.10
2023-03-12T00:52:30.762Z,4.90
2023-03-12T00:54:58.837Z,5.20
2023-03-12T00:57:26.672Z,4.60
2023-03-12T00:59:54.495Z,4.70
2023-03-12T01:02:22.509Z,4.90
2023-03-12T01:04:50.136Z,4.60
2023-03-12T01:07:17.764Z,5.10
2023-03-12T01:09:45.344Z,4.50
2023-03-12T01:12:12.931Z,4.50
2023-03-12T01:14:40.541Z,4.70
2023-03-12T01:17:08.223Z,4.70
2023-03-12T01:19:35.957Z,4.70
2023-03-12T01:22:04.235Z,4.70
2023-03-12T01:24:32.614Z,4.60
2023-03-12T01:27:00.237Z,4.70
2023-03-12T01:29:27.904Z,4.40
2023-03-12T01:31:55.576Z,4.50
2023-03-12T01:34:23.337Z,4.30
2023-03-12T01:36:51.008Z,4.40
2023-03-12T01:39:18.630Z,4.50
2023-03-12T01:41:46.259Z,4.40
2023-03-12T01:44:14.849Z,4.70
2023-03-12T01:46:45.875Z,4.60
2023-03-12T01:49:16.685Z,4.40
2023-03-12T01:51:50.234Z,4.50
2023-03-12T01:54:37.013Z,4.30
2023-03-12T01:57:08.470Z,4.50
2023-03-12T01:59:42.180Z,4.40
2023-03-12T02:02:10.517Z,4.40
2023-03-12T02:04:40.311Z,4.30
2023-03-12T02:07:11.318Z,4.80
2023-03-12T02:09:42.634Z,4.40
2023-03-12T02:12:10.737Z,4.70
2023-03-12T02:14:39.585Z,4.20
2023-03-12T02:17:08.627Z,4.70
2023-03-12T02:19:58.295Z,4.10
2023-03-12T02:22:26.667Z,4.40
2023-03-12T02:25:30.968Z,4.30
2023-03-12T02:28:00.959Z,4.40
2023-03-12T02:30:30.797Z,4.30
2023-03-12T02:33:02.529Z,4.40
2023-03-12T02:35:30.169Z,4.30
2023-03-12T02:37:57.926Z,4.00
2023-03-12T02:40:38.907Z,4.40
2023-03-12T02:43:09.536Z,4.20
2023-03-12T02:45:38.961Z,4.00
2023-03-12T02:48:08.959Z,4.00
2023-03-12T02:50:36.651Z,4.30
2023-03-12T02:53:04.404Z,4.10
2023-03-12T02:55:32.669Z,3.90
2023-03-12T02:58:00.365Z,4.50
2023-03-12T03:00:32.069Z,4.10
2023-03-12T03:03:00.968Z,4.30
2023-03-12T03:05:28.760Z,4.20
2023-03-12T03:07:56.444Z,3.90
2023-03-12T03:10:24.065Z,4.20
2023-03-12T03:12:51.716Z,4.10
2023-03-12T03:15:19.528Z,4.40
2023-03-12T03:17:47.383Z,4.40
2023-03-12T03:20:15.379Z,4.20
2023-03-12T03:22:43.091Z,4.10
2023-03-12T03:25:11.162Z,4.50
2023-03-12T03:27:38.781Z,4.40
2023-03-12T03:30:07.454Z,4.00
2023-03-12T03:32:38.934Z,4.10
2023-03-12T03:35:07.636Z,4.30
2023-03-12T03:37:35.422Z,4.20
2023-03-12T03:40:04.011Z,4.00
2023-03-12T03:42:31.696Z,4.20
2023-03-12T03:44:59.642Z,4.00
2023-03-12T03:47:27.254Z,4.10
2023-03-12T03:49:54.860Z,3.90
2023-03-12T03:52:22.856Z,3.90
2023-03-12T03:54:50.752Z,4.30
2023-03-12T03:57:18.394Z,4.20
2023-03-12T03:59:46.049Z,4.40
2023-03-12T04:02:13.797Z,4.00
2023-03-12T04:04:41.990Z,4.00
2023-03-12T04:07:09.757Z,3.90
2023-03-12T04:09:38.053Z,4.00
2023-03-12T04:12:06.287Z,3.90
2023-03-12T04:14:39.983Z,4.30
2023-03-12T04:17:08.507Z,4.20
2023-03-12T04:19:36.976Z,4.20
2023-03-12T04:22:05.772Z,4.20
2023-03-12T04:24:33.991Z,3.90
2023-03-12T04:27:01.980Z,4.30
2023-03-12T04:29:30.062Z,4.10
2023-03-12T04:31:58.056Z,4.20
2023-03-12T04:34:26.286Z,4.10
2023-03-12T04:36:54.110Z,4.10
2023-03-12T04:39:22.984Z,4.10
2023-03-12T04:41:51.404Z,4.10
2023-03-12T04:44:19.073Z,3.80
2023-03-12T04:46:46.805Z,4.00
2023-03-12T04:49:17.335Z,4.30
2023-03-12T04:51:45.081Z,4.00
2023-03-12T04:54:12.775Z,4.00
2023-03-12T04:56:41.381Z,3.80
2023-03-12T04:59:09.015Z,4.10
2023-03-12T05:01:37.367Z,3.90
2023-03-12T05:04:08.935Z,4.00
2023-03-12T05:06:36.929Z,4.10
2023-03-12T05:09:04.579Z,3.90
2023-03-12T05:11:32.693Z,4.00
2023-03-12T05:14:00.385Z,4.30
2023-03-12T05:16:29.637Z,4.00
2023-03-12T05:18:57.333Z,3.90
2023-03-12T05:21:25.392Z,3.80
2023-03-12T05:23:55.101Z,4.40
2023-03-12T05:26:32.857Z,4.00
2023-03-12T05:29:07.669Z,4.00
2023-03-12T05:31:36.484Z,3.80
2023-03-12T05:34:05.507Z,4.10
2023-03-12T05:36:34.234Z,4.20
2023-03-12T05:39:02.183Z,4.00
2023-03-12T05:41:31.794Z,4.10
2023-03-12T05:44:04.698Z,4.20
2023-03-12T05:46:32.619Z,4.00
2023-03-12T05:49:00.600Z,4.20
2023-03-12T05:51:28.469Z,4.10
2023-03-12T05:53:57.104Z,4.10
2023-03-12T05:56:25.289Z,4.20
2023-03-12T05:58:53.241Z,4.00
2023-03-12T06:01:24.909Z,3.70
2023-03-12T06:03:55.543Z,3.90
2023-03-12T06:06:25.683Z,4.20
2023-03-12T06:08:54.082Z,4.00
2023-03-12T06:11:21.695Z,3.90
2023-03-12T06:13:49.524Z,4.10
2023-03-12T06:16:21.282Z,3.70
2023-03-12T06:18:53.080Z,4.10
2023-03-12T06:21:25.295Z,4.10
2023-03-12T06:23:54.007Z,3.90
2023-03-12T06:26:26.956Z,4.10
2023-03-12T06:28:55.001Z,3.80
2023-03-12T06:31:23.180Z,4.00
2023-03-12T06:33:51.552Z,3.90
2023-03-12T06:36:20.241Z,4.00
2023-03-12T06:38:47.850Z,3.70
2023-03-12T06:41:18.428Z,4.00
2023-03-12T06:43:46.537Z,3.60
2023-03-12T06:46:17.231Z,3.70
2023-03-12T06:48:46.476Z,3.90
2023-03-12T06:51:16.698Z,3.80
2023-03-12T06:53:45.690Z,3.70
2023-03-12T06:56:14.251Z,3.60
2023-03-12T06:58:42.539Z,3.60
2023-03-12T07:01:10.597Z,3.90
2023-03-12T07:03:38.467Z,3.80
2023-03-12T07:06:16.282Z,3.50
2023-03-12T07:08:44.663Z,3.90
2023-03-12T07:11:13.710Z,3.90
2023-03-12T07:13:42.153Z,4.10
2023-03-12T07:16:10.957Z,3.90
2023-03-12T07:18:39.020Z,4.20
2023-03-12T07:21:06.829Z,3.90
2023-03-12T07:23:34.871Z,3.90
2023-03-12T07:26:05.369Z,4.00
2023-03-12T07:28:33.340Z,4.00
2023-03-12T07:31:02.906Z,3.80
2023-03-12T07:33:31.036Z,4.30
2023-03-12T07:35:59.491Z,4.40
2023-03-12T07:38:27.694Z,4.00
2023-03-12T07:40:57.617Z,3.90
2023-03-12T07:43:25.786Z,3.90
2023-03-12T07:45:55.778Z,4.10
2023-03-12T07:48:23.770Z,3.90
2023-03-12T07:50:52.274Z,3.70
2023-03-12T07:53:20.214Z,4.00
2023-03-12T07:55:48.526Z,4.20
2023-03-12T07:58:17.364Z,3.90
2023-03-12T08:00:45.324Z,3.90
2023-03-12T08:03:13.559Z,3.80
2023-03-12T08:05:43.298Z,3.50
2023-03-12T08:08:11.491Z,3.80
2023-03-12T08:10:39.596Z,3.90
2023-03-12T08:13:08.065Z,3.90
2023-03-12T08:15:35.792Z,3.80
2023-03-12T08:18:03.852Z,3.70
2023-03-12T08:20:32.000Z,3.80
2023-03-12T08:22:59.654Z,3.70
2023-03-12T08:25:28.536Z,4.10
2023-03-12T08:27:56.193Z,4.00
2023-03-12T08:30:24.255Z,3.80
2023-03-12T08:32:52.242Z,3.90
2023-03-12T08:35:20.057Z,3.80
2023-03-12T08:37:48.206Z,4.00
2023-03-12T08:40:16.436Z,3.90
2023-03-12T08:42:45.634Z,4.10
2023-03-12T08:45:14.354Z,4.20
2023-03-12T08:47:43.441Z,4.00
2023-03-12T08:50:13.190Z,3.60
2023-03-12T08:52:41.074Z,3.90
2023-03-12T08:55:10.672Z,3.80
2023-03-12T08:57:39.739Z,3.90
2023-03-12T09:00:11.409Z,3.60
2023-03-12T09:02:39.370Z,3.80
2023-03-12T09:05:07.650Z,3.60
2023-03-12T09:07:35.942Z,3.60
2023-03-12T09:10:04.999Z,3.90
2023-03-12T09:12:32.954Z,3.60
2023-03-12T09:15:05.105Z,3.50
2023-03-12T09:17:33.274Z,3.50
2023-03-12T09:20:01.022Z,3.90
2023-03-12T09:22:30.527Z,3.60
2023-03-12T09:24:58.456Z,3.80
2023-03-12T09:27:26.408Z,3.70
2023-03-12T09:30:00.491Z,4.00
2023-03-12T09:32:29.197Z,3.50
2023-03-12T09:34:57.265Z,3.90
2023-03-12T09:37:25.480Z,3.80
2023-03-12T09:39:53.734Z,3.80
2023-03-12T09:42:38.829Z,3.80
2023-03-12T09:45:10.975Z,3.90
2023-03-12T09:47:48.987Z,4.00
2023-03-12T09:50:31.662Z,3.50
2023-03-12T09:53:27.428Z,3.80
2023-03-12T09:55:57.844Z,3.50
2023-03-12T09:58:29.728Z,3.70
2023-03-12T10:01:26.720Z,3.80
2023-03-12T10:04:16.834Z,3.70
2023-03-12T10:07:05.713Z,3.50
2023-03-12T10:09:49.616Z,3.40
2023-03-12T10:12:29.143Z,3.50
2023-03-12T10:15:17.973Z,3.80
2023-03-12T10:18:00.631Z,3.70
2023-03-12T10:20:39.764Z,3.70
2023-03-12T10:23:38.286Z,3.30
2023-03-12T10:26:14.576Z,3.70
2023-03-12T10:29:10.693Z,3.80
2023-03-12T10:31:51.915Z,3.60
2023-03-12T10:34:39.195Z,3.70
2023-03-12T10:37:16.207Z,3.70
2023-03-12T10:39:44.915Z,3.70
2023-03-12T10:42:16.871Z,3.60
2023-03-12T10:44:52.157Z,3.70
2023-03-12T10:47:30.371Z,3.60
2023-03-12T10:50:16.640Z,3.60
2023-03-12T10:52:46.431Z,3.70
2023-03-12T10:55:24.244Z,3.90
2023-03-12T10:57:53.116Z,3.70
2023-03-12T11:00:25.260Z,3.80
2023-03-12T11:03:03.796Z,4.00
2023-03-12T11:05:35.840Z,3.70
2023-03-12T11:08:10.440Z,3.70
2023-03-12T11:10:41.515Z,3.60
2023-03-12T11:13:25.264Z,3.60
2023-03-12T11:15:54.617Z,3.90
2023-03-12T11:18:41.501Z,3.90
2023-03-12T11:21:09.419Z,3.50
2023-03-12T11:23:39.662Z,3.70
2023-03-12T11:26:24.817Z,3.80
2023-03-12T11:29:01.164Z,4.20
2023-03-12T11:31:37.898Z,3.60
2023-03-12T11:34:14.674Z,3.70
2023-03-12T11:37:14.302Z,3.70
2023-03-12T11:39:41.868Z,3.50
2023-03-12T11:42:51.944Z,3.70
2023-03-12T11:45:45.275Z,3.80
2023-03-12T11:48:23.695Z,3.70
2023-03-12T11:51:14.708Z,3.90
2023-03-12T11:53:58.218Z,3.90
2023-03-12T11:56:33.895Z,3.70
2023-03-12T11:59:22.184Z,7.00
2023-03-12T12:02:05.911Z,5.60
2023-03-12T12:05:04.827Z,3.90
2023-03-12T12:08:00.685Z,3.50
2023-03-12T12:10:36.069Z,3.70
2023-03-12T12:13:08.173Z,3.60
2023-03-12T12:16:06.825Z,3.80
2023-03-12T12:18:40.367Z,3.90
2023-03-12T12:21:23.988Z,4.00
2023-03-12T12:24:23.723Z,3.40
2023-03-12T12:27:07.980Z,3.60
2023-03-12T12:29:47.095Z,3.90
2023-03-12T12:32:32.313Z,3.70
2023-03-12T12:35:16.145Z,3.80
2023-03-12T12:37:57.958Z,3.90
2023-03-12T12:40:38.934Z,3.60
2023-03-12T12:43:23.820Z,3.60
2023-03-12T12:45:53.917Z,3.40
2023-03-12T12:48:43.462Z,3.90
2023-03-12T12:51:12.942Z,3.60
2023-03-12T12:53:49.424Z,3.30
2023-03-12T12:56:19.876Z,3.70
2023-03-12T12:59:07.602Z,3.70
2023-03-12T13:01:37.862Z,3.90
2023-03-12T13:04:11.999Z,3.80
2023-03-12T13:06:55.666Z,3.40
2023-03-12T13:09:40.631Z,3.80
2023-03-12T13:12:15.625Z,3.70
2023-03-12T13:14:45.086Z,3.30
2023-03-12T13:17:36.043Z,3.40
2023-03-12T13:20:10.942Z,3.50
2023-03-12T13:23:00.841Z,3.50
2023-03-12T13:25:47.770Z,3.40
2023-03-12T13:28:37.336Z,3.20
2023-03-12T13:31:20.983Z,3.80
2023-03-12T13:33:53.512Z,3.20
2023-03-12T13:36:24.477Z,3.20
2023-03-12T13:38:58.892Z,3.30
2023-03-12T13:41:35.555Z,3.60
2023-03-12T13:44:35.151Z,3.20
2023-03-12T13:47:11.701Z,3.30
2023-03-12T13:50:01.417Z,3.50
2023-03-12T13:52:33.677Z,3.30
2023-03-12T13:55:20.049Z,3.40
2023-03-12T13:58:06.079Z,3.60
2023-03-12T14:00:47.656Z,3.40
2023-03-12T14:03:23.439Z,3.40
2023-03-12T14:06:00.305Z,3.40
2023-03-12T14:08:41.071Z,3.30
2023-03-12T14:11:30.744Z,3.50
2023-03-12T14:14:30.391Z,3.70
2023-03-12T14:17:01.815Z,3.60
2023-03-12T14:19:31.307Z,3.50
2023-03-12T14:22:04.515Z,3.60
2023-03-12T14:24:39.650Z,3.40
2023-03-12T14:27:14.928Z,3.60
2023-03-12T14:29:48.652Z,3.40
2023-03-12T14:32:22.146Z,3.40
2023-03-12T14:35:02.770Z,3.40
2023-03-12T14:37:43.438Z,3.60
2023-03-12T14:40:50.492Z,3.10
2023-03-12T14:43:27.449Z,3.10
2023-03-12T14:46:04.764Z,2.70
2023-03-12T14:48:37.065Z,3.20
2023-03-12T14:51:07.193Z,2.40
2023-03-12T14:53:37.199Z,2.60
2023-03-12T14:56:20.796Z,2.80
2023-03-12T14:58:49.943Z,2.80
2023-03-12T15:01:23.481Z,3.00
2023-03-12T15:06:31.856Z,3.00
2023-03-12T15:11:34.598Z,3.20
2023-03-12T15:14:08.704Z,3.20
2023-03-12T15:16:36.781Z,3.10
2023-03-12T15:19:05.057Z,3.30
2023-03-12T15:21:35.556Z,3.20
2023-03-12T15:24:04.049Z,3.40
2023-03-12T15:26:37.899Z,3.30
2023-03-12T15:31:49.656Z,3.10
2023-03-12T15:34:33.624Z,3.30
2023-03-12T15:37:18.806Z,3.30
2023-03-12T15:39:50.534Z,3.40
2023-03-12T15:42:23.463Z,3.40
2023-03-12T15:44:59.415Z,3.70
2023-03-12T15:47:30.481Z,3.50
2023-03-12T15:50:03.321Z,3.60
2023-03-12T15:52:34.192Z,3.90
2023-03-12T15:55:27.033Z,3.70
2023-03-12T15:57:56.654Z,3.90
2023-03-12T16:00:31.979Z,3.60
2023-03-12T16:03:03.999Z,3.70
2023-03-12T16:05:37.541Z,3.40
2023-03-12T16:08:41.421Z,3.90
2023-03-12T16:11:17.515Z,3.80
2023-03-12T16:13:48.710Z,3.90
2023-03-12T16:16:16.913Z,3.70
2023-03-12T16:18:44.630Z,4.00
2023-03-12T16:21:12.765Z,4.00
2023-03-12T16:23:40.384Z,3.80
2023-03-12T16:26:08.303Z,4.00
2023-03-12T16:28:36.743Z,4.10
2023-03-12T16:31:13.765Z,3.70
2023-03-12T16:33:42.173Z,3.80
2023-03-12T16:36:16.565Z,4.00
2023-03-12T16:38:45.701Z,4.10
2023-03-12T16:41:16.678Z,4.20
2023-03-12T16:43:50.315Z,4.20
2023-03-12T16:46:20.629Z,4.50
2023-03-12T16:48:52.931Z,4.30
2023-03-12T16:51:20.891Z,3.90
2023-03-12T16:53:55.836Z,4.10
2023-03-12T16:56:35.328Z,4.10
2023-03-12T16:59:15.896Z,3.70
2023-03-12T17:01:43.768Z,3.80
2023-03-12T17:04:11.704Z,4.00
2023-03-12T17:06:40.460Z,4.00
2023-03-12T17:09:08.483Z,3.90
2023-03-12T17:11:37.838Z,4.00
2023-03-12T17:14:21.974Z,4.10
2023-03-12T17:16:50.338Z,4.10
2023-03-12T17:19:17.976Z,4.00
2023-03-12T17:21:46.987Z,4.20
2023-03-12T17:24:14.865Z,4.50
2023-03-12T17:26:45.181Z,4.40
2023-03-12T17:29:12.804Z,4.30
2023-03-12T17:31:40.456Z,4.20
2023-03-12T17:34:08.819Z,4.30
2023-03-12T17:36:37.777Z,4.40
2023-03-12T17:39:05.566Z,4.20
2023-03-12T17:41:33.730Z,4.40
2023-03-12T17:44:03.493Z,5.50
2023-03-12T17:46:31.536Z,5.50
2023-03-12T17:48:59.658Z,5.30
2023-03-12T17:51:27.357Z,4.90
2023-03-12T17:53:55.013Z,5.30
2023-03-12T17:56:22.675Z,5.50
2023-03-12T17:58:50.656Z,6.30
2023-03-12T18:01:18.908Z,5.40
2023-03-12T18:03:47.623Z,5.40
2023-03-12T18:06:15.533Z,5.50
2023-03-12T18:08:43.496Z,6.20
2023-03-12T18:11:11.150Z,11.50
2023-03-12T18:13:40.813Z,18.50
2023-03-12T18:16:09.177Z,16.00
2023-03-12T18:18:36.952Z,11.20
2023-03-12T18:21:05.127Z,8.20
2023-03-12T18:23:32.856Z,7.50
2023-03-12T18:26:00.734Z,6.40
2023-03-12T18:28:28.652Z,7.20
2023-03-12T18:30:56.416Z,8.10
2023-03-12T18:33:24.151Z,9.00
2023-03-12T18:35:54.375Z,8.90
2023-03-12T18:38:22.679Z,9.10
2023-03-12T18:40:51.289Z,11.20
2023-03-12T18:43:20.812Z,9.60
2023-03-12T18:45:49.920Z,9.60
2023-03-12T18:48:17.970Z,9.70
2023-03-12T18:50:45.733Z,9.90
2023-03-12T18:53:13.594Z,9.30
2023-03-12T18:55:41.257Z,9.30
2023-03-12T18:58:09.534Z,10.00
2023-03-12T19:00:37.292Z,8.90
2023-03-12T19:03:04.998Z,8.10
2023-03-12T19:05:32.815Z,8.80
2023-03-12T19:08:00.475Z,13.50
2023-03-12T19:10:28.165Z,14.00
2023-03-12T19:12:55.755Z,12.80
2023-03-12T19:15:24.487Z,11.00
2023-03-12T19:17:53.899Z,14.00
2023-03-12T19:20:21.775Z,21.30
2023-03-12T19:22:49.834Z,21.30
2023-03-12T19:25:17.692Z,17.20
2023-03-12T19:27:45.318Z,13.50
2023-03-12T19:30:13.770Z,11.00
2023-03-12T19:32:44.295Z,11.70
2023-03-12T19:35:14.299Z,10.00
2023-03-12T19:37:42.333Z,9.30
2023-03-12T19:40:10.891Z,8.80
2023-03-12T19:42:38.808Z,8.60
2023-03-12T19:45:07.043Z,8.40
2023-03-12T19:47:34.813Z,9.10
2023-03-12T19:50:02.936Z,9.50
2023-03-12T19:52:30.577Z,8.80
2023-03-12T19:55:04.731Z,9.20
2023-03-12T19:57:34.293Z,8.40
2023-03-12T20:00:02.107Z,8.70
2023-03-12T20:02:32.266Z,9.10
2023-03-12T20:05:00.032Z,9.40
2023-03-12T20:07:27.650Z,9.70
2023-03-12T20:09:55.297Z,10.10
2023-03-12T20:12:23.326Z,8.20
2023-03-12T20:14:50.918Z,8.00
2023-03-12T20:17:18.812Z,8.60
2023-03-12T20:19:46.647Z,14.60
2023-03-12T20:22:14.285Z,16.90
2023-03-12T20:24:42.074Z,9.80
2023-03-12T20:27:09.694Z,11.50
2023-03-12T20:29:37.455Z,13.50
2023-03-12T20:32:05.186Z,9.40
2023-03-12T20:34:32.895Z,17.90
2023-03-12T20:37:00.575Z,13.40
2023-03-12T20:39:28.183Z,10.00
2023-03-12T20:41:55.877Z,13.90
2023-03-12T20:44:23.695Z,15.20
2023-03-12T20:46:51.343Z,9.30
2023-03-12T20:49:19.116Z,7.80
2023-03-12T20:51:46.996Z,9.90
2023-03-12T20:54:14.679Z,11.60
2023-03-12T20:56:44.676Z,7.50
2023-03-12T20:59:12.536Z,7.60
2023-03-12T21:01:40.274Z,7.40
2023-03-12T21:04:08.048Z,11.40
2023-03-12T21:06:35.839Z,9.90
2023-03-12T21:09:03.754Z,9.10
2023-03-12T21:11:31.455Z,8.10
2023-03-12T21:13:59.288Z,8.10
2023-03-12T21:16:27.117Z,8.30
2023-03-12T21:18:56.298Z,6.60
2023-03-12T21:21:24.301Z,6.60
2023-03-12T21:23:52.049Z,5.90
2023-03-12T21:26:19.852Z,6.80
2023-03-12T21:28:47.506Z,7.40
2023-03-12T21:31:16.802Z,7.10
2023-03-12T21:33:45.185Z,6.90
2023-03-12T21:36:14.469Z,6.40
2023-03-12T21:38:42.931Z,6.30
2023-03-12T21:41:16.337Z,5.90
2023-03-12T21:43:45.257Z,6.20
2023-03-12T21:46:15.595Z,6.40
2023-03-12T21:48:44.896Z,6.10
2023-03-12T21:51:14.823Z,6.40
2023-03-12T21:53:42.472Z,6.80
2023-03-12T21:56:10.639Z,6.40
2023-03-12T21:58:38.554Z,6.20
2023-03-12T22:01:07.888Z,5.80
2023-03-12T22:03:36.220Z,5.80
2023-03-12T22:06:05.408Z,6.20
2023-03-12T22:08:34.034Z,6.50
2023-03-12T22:11:02.427Z,5.80
2023-03-12T22:13:30.391Z,6.00
2023-03-12T22:16:03.813Z,6.00
2023-03-12T22:18:32.481Z,6.00
2023-03-12T22:21:03.240Z,5.60
2023-03-12T22:23:31.890Z,5.30
2023-03-12T22:26:05.022Z,6.00
2023-03-12T22:28:33.009Z,5.10
2023-03-12T22:31:03.278Z,5.10
2023-03-12T22:33:32.279Z,5.50
2023-03-12T22:35:59.985Z,5.90
2023-03-12T22:38:27.709Z,5.90
2023-03-12T22:40:55.956Z,5.40
2023-03-12T22:43:26.887Z,5.40
2023-03-12T22:45:54.581Z,5.50
2023-03-12T22:48:22.201Z,5.70
2023-03-12T22:50:54.183Z,5.60
2023-03-12T22:53:22.206Z,5.90
2023-03-12T22:56:07.262Z,5.30
2023-03-12T22:58:35.624Z,5.30
2023-03-12T23:01:03.252Z,5.20
2023-03-12T23:03:32.392Z,5.40
2023-03-12T23:06:00.791Z,5.50
2023-03-12T23:08:28.785Z,5.20
2023-03-12T23:10:59.167Z,5.00
2023-03-12T23:13:30.098Z,5.50
2023-03-12T23:16:19.524Z,5.40
2023-03-12T23:18:47.713Z,5.30
2023-03-12T23:21:18.498Z,5.50
2023-03-12T23:23:47.522Z,5.50
2023-03-12T23:26:18.327Z,5.10
2023-03-12T23:28:47.151Z,5.30
2023-03-12T23:31:16.381Z,5.50
2023-03-12T23:33:44.820Z,5.30
2023-03-12T23:36:18.832Z,5.70
2023-03-12T23:38:47.709Z,5.50
2023-03-12T23:41:23.465Z,5.20
2023-03-12T23:43:52.351Z,5.80
2023-03-12T23:46:20.656Z,5.30
2023-03-12T23:48:49.774Z,5.40
2023-03-12T23:51:23.627Z,5.20
2023-03-12T23:56:23.246Z,5.50
2023-03-12T23:58:51.393Z,5.20
